sensor_id;sensor_type;location;lat;lon;timestamp;P1;durP1;ratioP1;P2;durP2;ratioP2
14276;SDS011;7222;57.346;12.150;2022-10-31T00:00:17;85.93;;;40.73;;
14276;SDS011;7222;57.346;12.150;2022-10-31T00:02:44;89.37;;;41.53;;
14276;SDS011;7222;57.346;12.150;2022-10-31T00:05:11;83.13;;;38.63;;
14276;SDS011;7222;57.346;12.150;2022-10-31T00:07:40;81.33;;;35.83;;
14276;SDS011;7222;57.346;12.150;2022-10-31T00:10:07;93.70;;;41.73;;
14276;SDS011;7222;57.346;12.150;2022-10-31T00:12:35;99.70;;;43.07;;
14276;SDS011;7222;57.346;12.150;2022-10-31T00:15:02;83.60;;;40.37;;
14276;SDS011;7222;57.346;12.150;2022-10-31T00:17:29;89.70;;;40.20;;
14276;SDS011;7222;57.346;12.150;2022-10-31T00:19:56;81.00;;;37.10;;
14276;SDS011;7222;57.346;12.150;2022-10-31T00:22:24;104.53;;;41.70;;
14276;SDS011;7222;57.346;12.150;2022-10-31T00:24:53;81.83;;;35.83;;
14276;SDS011;7222;57.346;12.150;2022-10-31T00:27:20;86.90;;;36.23;;
14276;SDS011;7222;57.346;12.150;2022-10-31T00:29:47;89.57;;;39.43;;
14276;SDS011;7222;57.346;12.150;2022-10-31T00:32:14;90.50;;;40.87;;
14276;SDS011;7222;57.346;12.150;2022-10-31T00:34:41;92.87;;;41.37;;
14276;SDS011;7222;57.346;12.150;2022-10-31T00:37:08;82.27;;;40.87;;
14276;SDS011;7222;57.346;12.150;2022-10-31T00:39:35;87.93;;;39.73;;
14276;SDS011;7222;57.346;12.150;2022-10-31T00:42:04;80.03;;;40.27;;
14276;SDS011;7222;57.346;12.150;2022-10-31T00:44:31;89.07;;;41.33;;
14276;SDS011;7222;57.346;12.150;2022-10-31T00:46:59;91.17;;;41.73;;
14276;SDS011;7222;57.346;12.150;2022-10-31T00:49:26;97.33;;;41.20;;
14276;SDS011;7222;57.346;12.150;2022-10-31T00:51:53;86.73;;;40.27;;
14276;SDS011;7222;57.346;12.150;2022-10-31T00:54:20;89.97;;;40.80;;
14276;SDS011;7222;57.346;12.150;2022-10-31T00:56:47;76.00;;;36.20;;
14276;SDS011;7222;57.346;12.150;2022-10-31T00:59:15;89.30;;;40.07;;
14276;SDS011;7222;57.346;12.150;2022-10-31T01:01:42;83.17;;;39.13;;
14276;SDS011;7222;57.346;12.150;2022-10-31T01:04:09;103.57;;;44.13;;
14276;SDS011;7222;57.346;12.150;2022-10-31T01:06:37;85.10;;;37.20;;
14276;SDS011;7222;57.346;12.150;2022-10-31T01:09:04;88.90;;;40.40;;
14276;SDS011;7222;57.346;12.150;2022-10-31T01:11:31;96.33;;;43.13;;
14276;SDS011;7222;57.346;12.150;2022-10-31T01:13:58;89.37;;;39.47;;
14276;SDS011;7222;57.346;12.150;2022-10-31T01:16:27;87.60;;;42.47;;
14276;SDS011;7222;57.346;12.150;2022-10-31T01:18:54;89.63;;;40.27;;
14276;SDS011;7222;57.346;12.150;2022-10-31T01:21:22;90.20;;;40.70;;
14276;SDS011;7222;57.346;12.150;2022-10-31T01:23:50;99.97;;;46.57;;
14276;SDS011;7222;57.346;12.150;2022-10-31T01:26:20;95.70;;;41.53;;
14276;SDS011;7222;57.346;12.150;2022-10-31T01:28:49;74.33;;;33.87;;
14276;SDS011;7222;57.346;12.150;2022-10-31T01:31:17;71.90;;;34.63;;
14276;SDS011;7222;57.346;12.150;2022-10-31T01:33:47;79.30;;;35.43;;
14276;SDS011;7222;57.346;12.150;2022-10-31T01:36:16;85.53;;;38.73;;
14276;SDS011;7222;57.346;12.150;2022-10-31T01:38:44;95.10;;;41.27;;
14276;SDS011;7222;57.346;12.150;2022-10-31T01:41:12;98.13;;;39.70;;
14276;SDS011;7222;57.346;12.150;2022-10-31T01:43:44;104.93;;;42.93;;
14276;SDS011;7222;57.346;12.150;2022-10-31T01:46:13;96.77;;;41.60;;
14276;SDS011;7222;57.346;12.150;2022-10-31T01:48:43;78.40;;;37.10;;
14276;SDS011;7222;57.346;12.150;2022-10-31T01:51:13;101.47;;;42.93;;
14276;SDS011;7222;57.346;12.150;2022-10-31T01:53:42;97.77;;;41.93;;
14276;SDS011;7222;57.346;12.150;2022-10-31T01:56:10;78.97;;;36.47;;
14276;SDS011;7222;57.346;12.150;2022-10-31T01:58:39;93.63;;;41.17;;
14276;SDS011;7222;57.346;12.150;2022-10-31T02:01:06;90.60;;;40.20;;
14276;SDS011;7222;57.346;12.150;2022-10-31T02:03:33;95.93;;;39.87;;
14276;SDS011;7222;57.346;12.150;2022-10-31T02:06:01;95.37;;;40.67;;
14276;SDS011;7222;57.346;12.150;2022-10-31T02:08:34;94.67;;;39.37;;
14276;SDS011;7222;57.346;12.150;2022-10-31T02:11:03;94.60;;;39.90;;
14276;SDS011;7222;57.346;12.150;2022-10-31T02:13:31;85.43;;;37.87;;
14276;SDS011;7222;57.346;12.150;2022-10-31T02:16:00;90.07;;;37.00;;
14276;SDS011;7222;57.346;12.150;2022-10-31T02:18:28;90.87;;;39.20;;
14276;SDS011;7222;57.346;12.150;2022-10-31T02:20:58;99.37;;;40.30;;
14276;SDS011;7222;57.346;12.150;2022-10-31T02:26:57;112.20;;;42.80;;
14276;SDS011;7222;57.346;12.150;2022-10-31T02:29:42;123.67;;;44.43;;
14276;SDS011;7222;57.346;12.150;2022-10-31T02:32:27;96.03;;;40.33;;
14276;SDS011;7222;57.346;12.150;2022-10-31T02:35:03;97.30;;;41.63;;
14276;SDS011;7222;57.346;12.150;2022-10-31T02:37:37;108.53;;;42.50;;
14276;SDS011;7222;57.346;12.150;2022-10-31T02:40:14;121.27;;;43.57;;
14276;SDS011;7222;57.346;12.150;2022-10-31T02:42:48;111.37;;;40.63;;
14276;SDS011;7222;57.346;12.150;2022-10-31T02:45:23;111.30;;;41.40;;
14276;SDS011;7222;57.346;12.150;2022-10-31T02:47:55;97.33;;;41.27;;
14276;SDS011;7222;57.346;12.150;2022-10-31T02:50:28;104.00;;;41.07;;
14276;SDS011;7222;57.346;12.150;2022-10-31T02:52:58;108.53;;;41.33;;
14276;SDS011;7222;57.346;12.150;2022-10-31T02:58:25;90.80;;;37.50;;
14276;SDS011;7222;57.346;12.150;2022-10-31T03:01:10;103.77;;;41.97;;
14276;SDS011;7222;57.346;12.150;2022-10-31T03:07:07;107.03;;;39.47;;
14276;SDS011;7222;57.346;12.150;2022-10-31T03:09:41;86.90;;;39.00;;
14276;SDS011;7222;57.346;12.150;2022-10-31T03:12:14;106.47;;;42.90;;
14276;SDS011;7222;57.346;12.150;2022-10-31T03:14:47;96.87;;;36.57;;
14276;SDS011;7222;57.346;12.150;2022-10-31T03:17:22;82.57;;;34.63;;
14276;SDS011;7222;57.346;12.150;2022-10-31T03:19:54;92.53;;;40.17;;
14276;SDS011;7222;57.346;12.150;2022-10-31T03:22:28;105.47;;;40.43;;
14276;SDS011;7222;57.346;12.150;2022-10-31T03:24:58;103.73;;;40.70;;
14276;SDS011;7222;57.346;12.150;2022-10-31T03:27:29;92.50;;;41.13;;
14276;SDS011;7222;57.346;12.150;2022-10-31T03:30:00;89.20;;;40.67;;
14276;SDS011;7222;57.346;12.150;2022-10-31T03:32:30;99.37;;;41.00;;
14276;SDS011;7222;57.346;12.150;2022-10-31T03:35:02;92.40;;;42.00;;
14276;SDS011;7222;57.346;12.150;2022-10-31T03:37:33;90.80;;;39.53;;
14276;SDS011;7222;57.346;12.150;2022-10-31T03:40:03;81.63;;;37.23;;
14276;SDS011;7222;57.346;12.150;2022-10-31T03:42:33;76.07;;;34.70;;
14276;SDS011;7222;57.346;12.150;2022-10-31T03:45:05;88.10;;;39.57;;
14276;SDS011;7222;57.346;12.150;2022-10-31T03:47:36;87.40;;;38.27;;
14276;SDS011;7222;57.346;12.150;2022-10-31T03:50:07;102.73;;;42.93;;
14276;SDS011;7222;57.346;12.150;2022-10-31T03:52:36;88.27;;;37.27;;
14276;SDS011;7222;57.346;12.150;2022-10-31T03:55:09;63.30;;;32.03;;
14276;SDS011;7222;57.346;12.150;2022-10-31T03:57:43;59.40;;;31.67;;
14276;SDS011;7222;57.346;12.150;2022-10-31T04:00:16;76.90;;;35.23;;
14276;SDS011;7222;57.346;12.150;2022-10-31T04:02:45;61.07;;;33.07;;
14276;SDS011;7222;57.346;12.150;2022-10-31T04:05:19;73.03;;;35.47;;
14276;SDS011;7222;57.346;12.150;2022-10-31T04:07:49;90.23;;;37.47;;
14276;SDS011;7222;57.346;12.150;2022-10-31T04:10:19;75.70;;;35.93;;
14276;SDS011;7222;57.346;12.150;2022-10-31T04:12:51;63.67;;;34.37;;
14276;SDS011;7222;57.346;12.150;2022-10-31T04:15:22;73.53;;;35.80;;
14276;SDS011;7222;57.346;12.150;2022-10-31T04:17:51;61.37;;;32.37;;
14276;SDS011;7222;57.346;12.150;2022-10-31T04:20:30;72.93;;;36.17;;
14276;SDS011;7222;57.346;12.150;2022-10-31T04:22:58;69.87;;;33.43;;
14276;SDS011;7222;57.346;12.150;2022-10-31T04:25:25;83.97;;;37.43;;
14276;SDS011;7222;57.346;12.150;2022-10-31T04:27:53;75.57;;;36.27;;
14276;SDS011;7222;57.346;12.150;2022-10-31T04:30:20;70.97;;;35.33;;
14276;SDS011;7222;57.346;12.150;2022-10-31T04:32:47;70.53;;;35.17;;
14276;SDS011;7222;57.346;12.150;2022-10-31T04:35:14;69.23;;;34.10;;
14276;SDS011;7222;57.346;12.150;2022-10-31T04:37:43;69.53;;;33.87;;
14276;SDS011;7222;57.346;12.150;2022-10-31T04:40:10;83.73;;;35.27;;
14276;SDS011;7222;57.346;12.150;2022-10-31T04:42:38;84.27;;;37.40;;
14276;SDS011;7222;57.346;12.150;2022-10-31T04:45:05;54.93;;;28.00;;
14276;SDS011;7222;57.346;12.150;2022-10-31T04:47:33;77.10;;;35.63;;
14276;SDS011;7222;57.346;12.150;2022-10-31T04:50:00;65.83;;;33.00;;
14276;SDS011;7222;57.346;12.150;2022-10-31T04:52:27;89.43;;;36.83;;
14276;SDS011;7222;57.346;12.150;2022-10-31T04:54:56;71.53;;;33.80;;
14276;SDS011;7222;57.346;12.150;2022-10-31T04:57:23;61.57;;;33.67;;
14276;SDS011;7222;57.346;12.150;2022-10-31T04:59:50;69.80;;;34.13;;
14276;SDS011;7222;57.346;12.150;2022-10-31T05:02:17;66.40;;;34.23;;
14276;SDS011;7222;57.346;12.150;2022-10-31T05:04:44;58.53;;;30.03;;
14276;SDS011;7222;57.346;12.150;2022-10-31T05:07:11;63.70;;;31.63;;
14276;SDS011;7222;57.346;12.150;2022-10-31T05:09:38;66.83;;;34.27;;
14276;SDS011;7222;57.346;12.150;2022-10-31T05:12:07;74.53;;;34.47;;
14276;SDS011;7222;57.346;12.150;2022-10-31T05:14:34;59.60;;;31.13;;
14276;SDS011;7222;57.346;12.150;2022-10-31T05:17:01;61.67;;;32.10;;
14276;SDS011;7222;57.346;12.150;2022-10-31T05:19:28;63.20;;;33.00;;
14276;SDS011;7222;57.346;12.150;2022-10-31T05:21:55;65.67;;;31.73;;
14276;SDS011;7222;57.346;12.150;2022-10-31T05:24:22;65.07;;;29.33;;
14276;SDS011;7222;57.346;12.150;2022-10-31T05:26:49;55.13;;;28.27;;
14276;SDS011;7222;57.346;12.150;2022-10-31T05:29:18;55.83;;;27.33;;
14276;SDS011;7222;57.346;12.150;2022-10-31T05:31:45;51.67;;;27.67;;
14276;SDS011;7222;57.346;12.150;2022-10-31T05:34:12;57.47;;;26.67;;
14276;SDS011;7222;57.346;12.150;2022-10-31T05:36:39;45.23;;;23.90;;
14276;SDS011;7222;57.346;12.150;2022-10-31T05:39:08;40.60;;;23.50;;
14276;SDS011;7222;57.346;12.150;2022-10-31T05:41:35;51.70;;;23.53;;
14276;SDS011;7222;57.346;12.150;2022-10-31T05:44:02;50.10;;;24.50;;
14276;SDS011;7222;57.346;12.150;2022-10-31T05:46:31;46.73;;;22.43;;
14276;SDS011;7222;57.346;12.150;2022-10-31T05:48:58;47.77;;;24.80;;
14276;SDS011;7222;57.346;12.150;2022-10-31T05:51:25;49.67;;;24.43;;
14276;SDS011;7222;57.346;12.150;2022-10-31T05:53:52;52.63;;;24.40;;
14276;SDS011;7222;57.346;12.150;2022-10-31T05:56:19;51.37;;;23.90;;
14276;SDS011;7222;57.346;12.150;2022-10-31T05:58:46;51.17;;;23.63;;
14276;SDS011;7222;57.346;12.150;2022-10-31T06:01:14;55.43;;;24.17;;
14276;SDS011;7222;57.346;12.150;2022-10-31T06:03:42;48.43;;;24.57;;
14276;SDS011;7222;57.346;12.150;2022-10-31T06:06:09;48.03;;;22.40;;
14276;SDS011;7222;57.346;12.150;2022-10-31T06:08:36;45.33;;;23.03;;
14276;SDS011;7222;57.346;12.150;2022-10-31T06:11:04;45.03;;;23.70;;
14276;SDS011;7222;57.346;12.150;2022-10-31T06:13:31;46.63;;;23.53;;
14276;SDS011;7222;57.346;12.150;2022-10-31T06:15:58;50.40;;;24.13;;
14276;SDS011;7222;57.346;12.150;2022-10-31T06:18:25;54.87;;;22.57;;
14276;SDS011;7222;57.346;12.150;2022-10-31T06:20:53;50.30;;;22.13;;
14276;SDS011;7222;57.346;12.150;2022-10-31T06:23:20;47.63;;;21.50;;
14276;SDS011;7222;57.346;12.150;2022-10-31T06:25:48;47.90;;;22.07;;
14276;SDS011;7222;57.346;12.150;2022-10-31T06:28:15;43.30;;;21.17;;
14276;SDS011;7222;57.346;12.150;2022-10-31T06:30:42;40.53;;;21.83;;
14276;SDS011;7222;57.346;12.150;2022-10-31T06:33:09;42.07;;;20.30;;
14276;SDS011;7222;57.346;12.150;2022-10-31T06:35:37;46.43;;;20.90;;
14276;SDS011;7222;57.346;12.150;2022-10-31T06:38:05;49.47;;;22.90;;
14276;SDS011;7222;57.346;12.150;2022-10-31T06:40:32;46.53;;;21.83;;
14276;SDS011;7222;57.346;12.150;2022-10-31T06:42:59;39.73;;;19.73;;
14276;SDS011;7222;57.346;12.150;2022-10-31T06:45:27;48.80;;;22.20;;
14276;SDS011;7222;57.346;12.150;2022-10-31T06:47:55;49.83;;;23.37;;
14276;SDS011;7222;57.346;12.150;2022-10-31T06:50:23;45.83;;;20.30;;
14276;SDS011;7222;57.346;12.150;2022-10-31T06:52:50;52.27;;;21.83;;
14276;SDS011;7222;57.346;12.150;2022-10-31T06:55:20;50.93;;;21.90;;
14276;SDS011;7222;57.346;12.150;2022-10-31T06:57:51;43.47;;;21.27;;
14276;SDS011;7222;57.346;12.150;2022-10-31T07:00:18;52.07;;;22.80;;
14276;SDS011;7222;57.346;12.150;2022-10-31T07:02:52;61.30;;;23.67;;
14276;SDS011;7222;57.346;12.150;2022-10-31T07:05:20;54.57;;;24.30;;
14276;SDS011;7222;57.346;12.150;2022-10-31T07:07:49;57.77;;;23.07;;
14276;SDS011;7222;57.346;12.150;2022-10-31T07:10:20;52.23;;;22.40;;
14276;SDS011;7222;57.346;12.150;2022-10-31T07:12:47;39.03;;;19.57;;
14276;SDS011;7222;57.346;12.150;2022-10-31T07:15:14;49.47;;;21.57;;
14276;SDS011;7222;57.346;12.150;2022-10-31T07:17:41;52.83;;;22.83;;
14276;SDS011;7222;57.346;12.150;2022-10-31T07:20:09;31.50;;;17.77;;
14276;SDS011;7222;57.346;12.150;2022-10-31T07:22:36;38.77;;;21.00;;
14276;SDS011;7222;57.346;12.150;2022-10-31T07:25:04;44.43;;;20.97;;
14276;SDS011;7222;57.346;12.150;2022-10-31T07:27:36;55.40;;;22.53;;
14276;SDS011;7222;57.346;12.150;2022-10-31T07:30:04;51.53;;;23.03;;
14276;SDS011;7222;57.346;12.150;2022-10-31T07:32:38;55.13;;;23.40;;
14276;SDS011;7222;57.346;12.150;2022-10-31T07:35:05;46.20;;;23.20;;
14276;SDS011;7222;57.346;12.150;2022-10-31T07:37:33;49.00;;;21.00;;
14276;SDS011;7222;57.346;12.150;2022-10-31T07:40:00;44.00;;;22.07;;
14276;SDS011;7222;57.346;12.150;2022-10-31T07:42:28;49.57;;;22.17;;
14276;SDS011;7222;57.346;12.150;2022-10-31T07:44:56;31.93;;;17.90;;
14276;SDS011;7222;57.346;12.150;2022-10-31T07:47:23;42.93;;;20.33;;
14276;SDS011;7222;57.346;12.150;2022-10-31T07:49:50;41.43;;;19.17;;
14276;SDS011;7222;57.346;12.150;2022-10-31T07:52:17;37.73;;;19.63;;
14276;SDS011;7222;57.346;12.150;2022-10-31T07:54:44;34.10;;;18.23;;
14276;SDS011;7222;57.346;12.150;2022-10-31T07:57:11;31.63;;;17.07;;
14276;SDS011;7222;57.346;12.150;2022-10-31T07:59:38;36.57;;;18.20;;
14276;SDS011;7222;57.346;12.150;2022-10-31T08:02:08;36.73;;;17.17;;
14276;SDS011;7222;57.346;12.150;2022-10-31T08:04:35;35.10;;;17.10;;
14276;SDS011;7222;57.346;12.150;2022-10-31T08:07:02;28.43;;;17.17;;
14276;SDS011;7222;57.346;12.150;2022-10-31T08:09:29;30.30;;;16.83;;
14276;SDS011;7222;57.346;12.150;2022-10-31T08:11:56;30.53;;;16.60;;
14276;SDS011;7222;57.346;12.150;2022-10-31T08:14:23;31.63;;;16.40;;
14276;SDS011;7222;57.346;12.150;2022-10-31T08:16:51;29.57;;;15.40;;
14276;SDS011;7222;57.346;12.150;2022-10-31T08:19:20;29.87;;;15.93;;
14276;SDS011;7222;57.346;12.150;2022-10-31T08:21:49;27.83;;;15.87;;
14276;SDS011;7222;57.346;12.150;2022-10-31T08:24:17;30.87;;;15.73;;
14276;SDS011;7222;57.346;12.150;2022-10-31T08:26:44;24.43;;;14.87;;
14276;SDS011;7222;57.346;12.150;2022-10-31T08:29:11;32.30;;;16.33;;
14276;SDS011;7222;57.346;12.150;2022-10-31T08:31:39;22.73;;;13.97;;
14276;SDS011;7222;57.346;12.150;2022-10-31T08:34:07;22.57;;;13.50;;
14276;SDS011;7222;57.346;12.150;2022-10-31T08:36:36;28.30;;;15.20;;
14276;SDS011;7222;57.346;12.150;2022-10-31T08:39:03;26.90;;;13.40;;
14276;SDS011;7222;57.346;12.150;2022-10-31T08:41:30;27.30;;;15.57;;
14276;SDS011;7222;57.346;12.150;2022-10-31T08:43:57;27.17;;;15.53;;
14276;SDS011;7222;57.346;12.150;2022-10-31T08:46:24;24.40;;;13.60;;
14276;SDS011;7222;57.346;12.150;2022-10-31T08:48:51;26.13;;;13.60;;
14276;SDS011;7222;57.346;12.150;2022-10-31T08:51:18;23.77;;;12.10;;
14276;SDS011;7222;57.346;12.150;2022-10-31T08:53:47;23.00;;;13.70;;
14276;SDS011;7222;57.346;12.150;2022-10-31T08:56:14;28.17;;;14.67;;
14276;SDS011;7222;57.346;12.150;2022-10-31T08:58:41;23.20;;;13.70;;
14276;SDS011;7222;57.346;12.150;2022-10-31T09:01:08;25.53;;;14.07;;
14276;SDS011;7222;57.346;12.150;2022-10-31T09:03:35;24.73;;;12.93;;
14276;SDS011;7222;57.346;12.150;2022-10-31T09:06:02;25.40;;;13.97;;
14276;SDS011;7222;57.346;12.150;2022-10-31T09:08:33;25.10;;;13.60;;
14276;SDS011;7222;57.346;12.150;2022-10-31T09:11:02;26.57;;;15.57;;
14276;SDS011;7222;57.346;12.150;2022-10-31T09:13:31;28.87;;;15.23;;
14276;SDS011;7222;57.346;12.150;2022-10-31T09:15:58;30.60;;;15.20;;
14276;SDS011;7222;57.346;12.150;2022-10-31T09:18:26;21.80;;;13.93;;
14276;SDS011;7222;57.346;12.150;2022-10-31T09:20:53;21.80;;;15.33;;
14276;SDS011;7222;57.346;12.150;2022-10-31T09:23:23;25.97;;;13.87;;
14276;SDS011;7222;57.346;12.150;2022-10-31T09:25:51;22.57;;;13.80;;
14276;SDS011;7222;57.346;12.150;2022-10-31T09:28:21;17.60;;;13.07;;
14276;SDS011;7222;57.346;12.150;2022-10-31T09:30:49;16.67;;;10.07;;
14276;SDS011;7222;57.346;12.150;2022-10-31T09:33:19;18.57;;;11.10;;
14276;SDS011;7222;57.346;12.150;2022-10-31T09:35:47;20.40;;;11.30;;
14276;SDS011;7222;57.346;12.150;2022-10-31T09:38:14;19.67;;;12.27;;
14276;SDS011;7222;57.346;12.150;2022-10-31T09:40:44;16.00;;;10.60;;
14276;SDS011;7222;57.346;12.150;2022-10-31T09:43:14;17.87;;;11.03;;
14276;SDS011;7222;57.346;12.150;2022-10-31T09:48:39;18.23;;;9.80;;
14276;SDS011;7222;57.346;12.150;2022-10-31T09:51:15;16.80;;;9.73;;
14276;SDS011;7222;57.346;12.150;2022-10-31T09:53:48;18.07;;;10.27;;
14276;SDS011;7222;57.346;12.150;2022-10-31T09:56:18;18.57;;;11.03;;
14276;SDS011;7222;57.346;12.150;2022-10-31T09:58:47;17.20;;;10.30;;
14276;SDS011;7222;57.346;12.150;2022-10-31T10:04:14;12.30;;;9.10;;
14276;SDS011;7222;57.346;12.150;2022-10-31T10:06:54;11.07;;;7.37;;
14276;SDS011;7222;57.346;12.150;2022-10-31T10:09:24;9.80;;;7.10;;
14276;SDS011;7222;57.346;12.150;2022-10-31T10:11:55;12.40;;;7.60;;
14276;SDS011;7222;57.346;12.150;2022-10-31T10:14:41;10.90;;;6.70;;
14276;SDS011;7222;57.346;12.150;2022-10-31T10:17:27;11.00;;;6.90;;
14276;SDS011;7222;57.346;12.150;2022-10-31T10:20:07;10.07;;;6.37;;
14276;SDS011;7222;57.346;12.150;2022-10-31T10:22:46;10.27;;;6.83;;
14276;SDS011;7222;57.346;12.150;2022-10-31T10:25:20;9.40;;;6.07;;
14276;SDS011;7222;57.346;12.150;2022-10-31T10:27:51;10.37;;;6.50;;
14276;SDS011;7222;57.346;12.150;2022-10-31T10:30:34;10.27;;;6.63;;
14276;SDS011;7222;57.346;12.150;2022-10-31T10:33:10;8.90;;;5.73;;
14276;SDS011;7222;57.346;12.150;2022-10-31T10:35:41;7.83;;;4.97;;
14276;SDS011;7222;57.346;12.150;2022-10-31T10:38:15;9.17;;;5.00;;
14276;SDS011;7222;57.346;12.150;2022-10-31T10:40:46;7.37;;;4.63;;
14276;SDS011;7222;57.346;12.150;2022-10-31T10:43:21;8.40;;;4.50;;
14276;SDS011;7222;57.346;12.150;2022-10-31T10:45:57;9.90;;;4.30;;
14276;SDS011;7222;57.346;12.150;2022-10-31T10:48:52;6.03;;;4.57;;
14276;SDS011;7222;57.346;12.150;2022-10-31T10:51:26;5.63;;;4.20;;
14276;SDS011;7222;57.346;12.150;2022-10-31T10:54:02;7.67;;;4.20;;
14276;SDS011;7222;57.346;12.150;2022-10-31T10:56:45;7.50;;;4.43;;
14276;SDS011;7222;57.346;12.150;2022-10-31T10:59:24;5.53;;;3.50;;
14276;SDS011;7222;57.346;12.150;2022-10-31T11:01:52;4.87;;;4.07;;
14276;SDS011;7222;57.346;12.150;2022-10-31T11:04:25;5.87;;;3.73;;
14276;SDS011;7222;57.346;12.150;2022-10-31T11:07:02;4.87;;;3.60;;
14276;SDS011;7222;57.346;12.150;2022-10-31T11:09:30;7.70;;;4.57;;
14276;SDS011;7222;57.346;12.150;2022-10-31T11:11:58;6.43;;;4.20;;
14276;SDS011;7222;57.346;12.150;2022-10-31T11:14:28;8.90;;;4.33;;
14276;SDS011;7222;57.346;12.150;2022-10-31T11:17:06;5.83;;;4.10;;
14276;SDS011;7222;57.346;12.150;2022-10-31T11:19:37;7.60;;;3.77;;
14276;SDS011;7222;57.346;12.150;2022-10-31T11:22:05;9.20;;;4.80;;
14276;SDS011;7222;57.346;12.150;2022-10-31T11:24:37;6.17;;;4.17;;
14276;SDS011;7222;57.346;12.150;2022-10-31T11:27:13;7.77;;;4.17;;
14276;SDS011;7222;57.346;12.150;2022-10-31T11:29:42;6.87;;;4.67;;
14276;SDS011;7222;57.346;12.150;2022-10-31T11:32:15;6.13;;;4.40;;
14276;SDS011;7222;57.346;12.150;2022-10-31T11:34:48;10.63;;;5.73;;
14276;SDS011;7222;57.346;12.150;2022-10-31T11:37:20;33.60;;;16.63;;
14276;SDS011;7222;57.346;12.150;2022-10-31T11:39:50;8.57;;;5.57;;
14276;SDS011;7222;57.346;12.150;2022-10-31T11:42:21;10.27;;;5.87;;
14276;SDS011;7222;57.346;12.150;2022-10-31T11:44:51;9.17;;;5.20;;
14276;SDS011;7222;57.346;12.150;2022-10-31T11:47:23;6.30;;;4.97;;
14276;SDS011;7222;57.346;12.150;2022-10-31T11:49:55;7.37;;;5.00;;
14276;SDS011;7222;57.346;12.150;2022-10-31T11:52:24;7.90;;;5.40;;
14276;SDS011;7222;57.346;12.150;2022-10-31T11:54:54;9.43;;;5.27;;
14276;SDS011;7222;57.346;12.150;2022-10-31T11:57:25;6.80;;;5.17;;
14276;SDS011;7222;57.346;12.150;2022-10-31T11:59:55;5.27;;;4.53;;
14276;SDS011;7222;57.346;12.150;2022-10-31T12:02:24;10.17;;;5.53;;
14276;SDS011;7222;57.346;12.150;2022-10-31T12:04:56;7.80;;;5.33;;
14276;SDS011;7222;57.346;12.150;2022-10-31T12:07:28;6.67;;;5.37;;
14276;SDS011;7222;57.346;12.150;2022-10-31T12:09:56;9.73;;;5.60;;
14276;SDS011;7222;57.346;12.150;2022-10-31T12:15:30;7.43;;;5.37;;
14276;SDS011;7222;57.346;12.150;2022-10-31T12:18:06;6.20;;;4.87;;
14276;SDS011;7222;57.346;12.150;2022-10-31T12:20:49;6.60;;;4.93;;
14276;SDS011;7222;57.346;12.150;2022-10-31T12:23:25;7.80;;;4.93;;
14276;SDS011;7222;57.346;12.150;2022-10-31T12:26:04;7.80;;;5.30;;
14276;SDS011;7222;57.346;12.150;2022-10-31T12:31:32;6.97;;;4.73;;
14276;SDS011;7222;57.346;12.150;2022-10-31T12:37:26;7.83;;;4.90;;
14276;SDS011;7222;57.346;12.150;2022-10-31T12:40:20;7.57;;;4.33;;
14276;SDS011;7222;57.346;12.150;2022-10-31T12:43:02;7.30;;;4.57;;
14276;SDS011;7222;57.346;12.150;2022-10-31T12:45:46;9.87;;;4.93;;
14276;SDS011;7222;57.346;12.150;2022-10-31T12:48:27;8.40;;;5.03;;
14276;SDS011;7222;57.346;12.150;2022-10-31T12:51:09;7.57;;;4.90;;
14276;SDS011;7222;57.346;12.150;2022-10-31T12:53:48;8.27;;;4.37;;
14276;SDS011;7222;57.346;12.150;2022-10-31T12:56:27;9.00;;;4.80;;
14276;SDS011;7222;57.346;12.150;2022-10-31T12:59:04;9.13;;;5.33;;
14276;SDS011;7222;57.346;12.150;2022-10-31T13:01:36;11.83;;;5.67;;
14276;SDS011;7222;57.346;12.150;2022-10-31T13:04:10;6.27;;;4.50;;
14276;SDS011;7222;57.346;12.150;2022-10-31T13:06:43;9.60;;;5.03;;
14276;SDS011;7222;57.346;12.150;2022-10-31T13:09:20;6.70;;;4.70;;
14276;SDS011;7222;57.346;12.150;2022-10-31T13:11:53;9.93;;;5.20;;
14276;SDS011;7222;57.346;12.150;2022-10-31T13:14:26;11.13;;;6.07;;
14276;SDS011;7222;57.346;12.150;2022-10-31T13:16:58;6.70;;;4.17;;
14276;SDS011;7222;57.346;12.150;2022-10-31T13:19:29;8.90;;;5.03;;
14276;SDS011;7222;57.346;12.150;2022-10-31T13:22:02;12.10;;;6.63;;
14276;SDS011;7222;57.346;12.150;2022-10-31T13:24:35;8.97;;;5.87;;
14276;SDS011;7222;57.346;12.150;2022-10-31T13:27:18;8.07;;;5.90;;
14276;SDS011;7222;57.346;12.150;2022-10-31T13:30:00;9.10;;;5.50;;
14276;SDS011;7222;57.346;12.150;2022-10-31T13:32:35;9.83;;;5.27;;
14276;SDS011;7222;57.346;12.150;2022-10-31T13:35:07;12.90;;;3.77;;
14276;SDS011;7222;57.346;12.150;2022-10-31T13:37:41;13.03;;;3.20;;
14276;SDS011;7222;57.346;12.150;2022-10-31T13:40:18;78.63;;;6.93;;
14276;SDS011;7222;57.346;12.150;2022-10-31T13:42:54;33.17;;;3.90;;
14276;SDS011;7222;57.346;12.150;2022-10-31T13:45:26;105.47;;;8.60;;
14276;SDS011;7222;57.346;12.150;2022-10-31T13:47:57;4.50;;;2.30;;
14276;SDS011;7222;57.346;12.150;2022-10-31T13:50:26;42.70;;;4.77;;
14276;SDS011;7222;57.346;12.150;2022-10-31T13:53:11;13.60;;;2.57;;
14276;SDS011;7222;57.346;12.150;2022-10-31T13:55:42;13.93;;;2.83;;
14276;SDS011;7222;57.346;12.150;2022-10-31T13:58:25;49.07;;;4.60;;
14276;SDS011;7222;57.346;12.150;2022-10-31T14:00:59;30.80;;;3.77;;
14276;SDS011;7222;57.346;12.150;2022-10-31T14:03:39;34.47;;;3.47;;
14276;SDS011;7222;57.346;12.150;2022-10-31T14:06:08;31.07;;;3.40;;
14276;SDS011;7222;57.346;12.150;2022-10-31T14:08:37;13.00;;;2.10;;
14276;SDS011;7222;57.346;12.150;2022-10-31T14:11:09;33.23;;;3.60;;
14276;SDS011;7222;57.346;12.150;2022-10-31T14:13:48;30.80;;;3.27;;
14276;SDS011;7222;57.346;12.150;2022-10-31T14:16:17;38.33;;;3.80;;
14276;SDS011;7222;57.346;12.150;2022-10-31T14:18:48;35.37;;;3.37;;
14276;SDS011;7222;57.346;12.150;2022-10-31T14:21:25;53.27;;;4.73;;
14276;SDS011;7222;57.346;12.150;2022-10-31T14:23:54;31.67;;;4.10;;
14276;SDS011;7222;57.346;12.150;2022-10-31T14:26:36;50.43;;;4.87;;
14276;SDS011;7222;57.346;12.150;2022-10-31T14:29:22;32.57;;;3.90;;
14276;SDS011;7222;57.346;12.150;2022-10-31T14:31:52;17.37;;;2.83;;
14276;SDS011;7222;57.346;12.150;2022-10-31T14:34:25;44.43;;;4.20;;
14276;SDS011;7222;57.346;12.150;2022-10-31T14:37:10;89.27;;;8.23;;
14276;SDS011;7222;57.346;12.150;2022-10-31T14:46:01;38.00;;;3.97;;
14276;SDS011;7222;57.346;12.150;2022-10-31T14:48:37;88.67;;;7.50;;
14276;SDS011;7222;57.346;12.150;2022-10-31T14:51:19;66.97;;;5.57;;
14276;SDS011;7222;57.346;12.150;2022-10-31T14:53:48;22.63;;;2.57;;
14276;SDS011;7222;57.346;12.150;2022-10-31T14:56:20;23.50;;;3.40;;
14276;SDS011;7222;57.346;12.150;2022-10-31T14:58:49;23.70;;;3.17;;
14276;SDS011;7222;57.346;12.150;2022-10-31T15:01:23;23.70;;;3.10;;
14276;SDS011;7222;57.346;12.150;2022-10-31T15:03:53;44.27;;;4.70;;
14276;SDS011;7222;57.346;12.150;2022-10-31T15:06:25;125.07;;;11.27;;
14276;SDS011;7222;57.346;12.150;2022-10-31T15:08:57;44.33;;;5.00;;
14276;SDS011;7222;57.346;12.150;2022-10-31T15:11:24;7.80;;;2.60;;
14276;SDS011;7222;57.346;12.150;2022-10-31T15:13:53;6.17;;;2.50;;
14276;SDS011;7222;57.346;12.150;2022-10-31T15:16:24;5.43;;;2.73;;
14276;SDS011;7222;57.346;12.150;2022-10-31T15:18:53;8.07;;;2.60;;